<?xml version="1.0" encoding="UTF-8" standalone="no" ?>
<gpx xmlns="http://www.topografix.com/GPX/1/1" xmlns:xsi="http://www.w3.org/2001/XMLSchema-instance" xsi:schemaLocation="http://www.topografix.com/GPX/1/1 http://www.topografix.com/GPX/1/1/gpx.xsd" version="1.1" creator="VisuGPX - https://www.visugpx.com">
  <metadata>
    <name>Rando LN</name>
  </metadata>
  <trk>
    <name><![CDATA[Sarlat]]></name>
    <extensions>
      <line xmlns="http://www.topografix.com/GPX/gpx_style/0/2">
        <color>ee00ff</color>
        <width>4</width>
      </line>
    </extensions>
    <trkseg>
      <trkpt lat="44.93654" lon="1.08572">
        <ele>211.164</ele>
        <time>2015-08-04T09:52:55Z</time>
      </trkpt>
      <trkpt lat="44.93654" lon="1.08572">
        <ele>211.164</ele>
        <time>2015-08-04T09:52:55Z</time>
      </trkpt>
      <trkpt lat="44.93654" lon="1.08572">
        <ele>211.164</ele>
        <time>2015-08-04T09:52:55Z</time>
      </trkpt>
      <trkpt lat="44.93654" lon="1.08572">
        <ele>211.164</ele>
        <time>2015-08-04T09:52:55Z</time>
      </trkpt>
      <trkpt lat="44.93654" lon="1.08572">
        <ele>211.164</ele>
        <time>2015-08-04T09:52:55Z</time>
      </trkpt>
      <trkpt lat="44.93654" lon="1.08572">
        <ele>211.164</ele>
        <time>2015-08-04T09:52:55Z</time>
      </trkpt>
      <trkpt lat="44.93654" lon="1.08572">
        <ele>211.164</ele>
        <time>2015-08-04T09:52:55Z</time>
      </trkpt>
      <trkpt lat="44.93654" lon="1.08572">
        <ele>211.164</ele>
        <time>2015-08-04T09:52:55Z</time>
      </trkpt>
      <trkpt lat="44.936" lon="1.08633">
        <ele>207.164</ele>
        <time>2015-08-04T09:53:15Z</time>
      </trkpt>
      <trkpt lat="44.93548" lon="1.0873">
        <ele>202.526</ele>
        <time>2015-08-04T09:53:35Z</time>
      </trkpt>
      <trkpt lat="44.93503" lon="1.08911">
        <ele>198.398</ele>
        <time>2020-03-06T14:15:17Z</time>
      </trkpt>
      <trkpt lat="44.93479" lon="1.08972">
        <ele>205.069</ele>
        <time>2020-03-06T14:15:37Z</time>
      </trkpt>
      <trkpt lat="44.93528" lon="1.09002">
        <ele>199.185</ele>
        <time>2020-03-06T14:15:57Z</time>
      </trkpt>
      <trkpt lat="44.93554" lon="1.08996">
        <ele>195.267</ele>
        <time>2020-11-25T10:23:00Z</time>
      </trkpt>
      <trkpt lat="44.93576" lon="1.09075">
        <ele>193.165</ele>
        <time>2020-11-25T10:23:20Z</time>
      </trkpt>
      <trkpt lat="44.9358" lon="1.09592">
        <ele>172.968</ele>
        <time>2020-11-25T10:23:40Z</time>
      </trkpt>
      <trkpt lat="44.93551" lon="1.09699">
        <ele>169.114</ele>
        <time>2020-11-25T10:24:00Z</time>
      </trkpt>
      <trkpt lat="44.93555" lon="1.09798">
        <ele>180.508</ele>
        <time>2020-11-25T10:24:20Z</time>
      </trkpt>
      <trkpt lat="44.93598" lon="1.09852">
        <ele>186.062</ele>
        <time>2020-11-25T10:24:40Z</time>
      </trkpt>
      <trkpt lat="44.93596" lon="1.09896">
        <ele>192.557</ele>
        <time>2020-11-25T10:25:00Z</time>
      </trkpt>
      <trkpt lat="44.93609" lon="1.10012">
        <ele>195.247</ele>
        <time>2020-11-25T10:25:20Z</time>
      </trkpt>
      <trkpt lat="44.93541" lon="1.10005">
        <ele>202.189</ele>
        <time>2020-11-25T10:25:40Z</time>
      </trkpt>
      <trkpt lat="44.935" lon="1.09991">
        <ele>202.391</ele>
        <time>2020-11-25T10:26:00Z</time>
      </trkpt>
      <trkpt lat="44.93444" lon="1.10013">
        <ele>204.012</ele>
        <time>2020-11-25T10:26:20Z</time>
      </trkpt>
      <trkpt lat="44.93412" lon="1.10001">
        <ele>206.048</ele>
        <time>2020-11-25T10:26:40Z</time>
      </trkpt>
      <trkpt lat="44.93448" lon="1.10083">
        <ele>199.63</ele>
        <time>2020-11-25T10:27:00Z</time>
      </trkpt>
      <trkpt lat="44.93571" lon="1.10098">
        <ele>193.938</ele>
        <time>2020-11-25T10:27:20Z</time>
      </trkpt>
      <trkpt lat="44.93689" lon="1.10092">
        <ele>189.07</ele>
        <time>2020-11-25T10:27:40Z</time>
      </trkpt>
      <trkpt lat="44.93744" lon="1.10066">
        <ele>192.517</ele>
        <time>2020-03-06T14:23:17Z</time>
      </trkpt>
      <trkpt lat="44.93849" lon="1.10026">
        <ele>188.608</ele>
        <time>2020-03-06T14:23:37Z</time>
      </trkpt>
      <trkpt lat="44.93939" lon="1.10023">
        <ele>185.129</ele>
        <time>2020-03-06T14:23:57Z</time>
      </trkpt>
      <trkpt lat="44.93964" lon="1.10028">
        <ele>183.354</ele>
        <time>2020-03-06T14:24:17Z</time>
      </trkpt>
      <trkpt lat="44.93991" lon="1.10037">
        <ele>179.954</ele>
        <time>2020-03-06T14:24:37Z</time>
      </trkpt>
      <trkpt lat="44.94007" lon="1.10052">
        <ele>176.126</ele>
        <time>2020-03-06T14:24:57Z</time>
      </trkpt>
      <trkpt lat="44.94003" lon="1.10101">
        <ele>170.678</ele>
        <time>2020-03-06T14:25:17Z</time>
      </trkpt>
      <trkpt lat="44.93933" lon="1.10168">
        <ele>167.879</ele>
        <time>2020-03-06T14:25:37Z</time>
      </trkpt>
      <trkpt lat="44.93922" lon="1.10195">
        <ele>166.535</ele>
        <time>2020-03-06T14:25:57Z</time>
      </trkpt>
      <trkpt lat="44.93918" lon="1.10239">
        <ele>163.697</ele>
        <time>2020-03-06T14:26:17Z</time>
      </trkpt>
      <trkpt lat="44.93894" lon="1.10269">
        <ele>165.516</ele>
        <time>2020-03-06T14:26:37Z</time>
      </trkpt>
      <trkpt lat="44.93953" lon="1.10286">
        <ele>154.076</ele>
        <time>2020-03-06T14:26:57Z</time>
      </trkpt>
      <trkpt lat="44.93955" lon="1.10309">
        <ele>151.613</ele>
        <time>2020-03-06T14:27:17Z</time>
      </trkpt>
      <trkpt lat="44.93932" lon="1.10361">
        <ele>148.008</ele>
        <time>2020-03-06T14:27:37Z</time>
      </trkpt>
      <trkpt lat="44.93869" lon="1.10415">
        <ele>142.397</ele>
        <time>2020-03-06T14:27:57Z</time>
      </trkpt>
      <trkpt lat="44.93932" lon="1.1045">
        <ele>137.392</ele>
        <time>2020-03-06T14:28:17Z</time>
      </trkpt>
      <trkpt lat="44.93974" lon="1.1046">
        <ele>134.072</ele>
        <time>2020-03-06T14:28:37Z</time>
      </trkpt>
      <trkpt lat="44.93964" lon="1.10558">
        <ele>137.384</ele>
        <time>2020-03-06T14:28:57Z</time>
      </trkpt>
      <trkpt lat="44.93969" lon="1.10615">
        <ele>138.586</ele>
        <time>2020-03-06T14:29:17Z</time>
      </trkpt>
      <trkpt lat="44.93959" lon="1.10645">
        <ele>141.227</ele>
        <time>2020-03-06T14:29:37Z</time>
      </trkpt>
      <trkpt lat="44.93911" lon="1.10666">
        <ele>146.673</ele>
        <time>2020-03-06T14:29:57Z</time>
      </trkpt>
      <trkpt lat="44.93851" lon="1.1061">
        <ele>154.545</ele>
        <time>2015-08-04T10:06:15Z</time>
      </trkpt>
      <trkpt lat="44.93828" lon="1.106">
        <ele>158.324</ele>
        <time>2015-08-04T10:06:35Z</time>
      </trkpt>
      <trkpt lat="44.93819" lon="1.10611">
        <ele>160.504</ele>
        <time>2015-08-04T10:06:55Z</time>
      </trkpt>
      <trkpt lat="44.93816" lon="1.10644">
        <ele>163.414</ele>
        <time>2015-08-04T10:07:15Z</time>
      </trkpt>
      <trkpt lat="44.93755" lon="1.10705">
        <ele>171.108</ele>
        <time>2015-08-04T10:07:35Z</time>
      </trkpt>
      <trkpt lat="44.93731" lon="1.10757">
        <ele>172.918</ele>
        <time>2015-08-04T10:07:55Z</time>
      </trkpt>
      <trkpt lat="44.93715" lon="1.10777">
        <ele>174.013</ele>
        <time>2015-08-04T10:08:15Z</time>
      </trkpt>
      <trkpt lat="44.93692" lon="1.10818">
        <ele>174.583</ele>
        <time>2015-08-04T10:08:35Z</time>
      </trkpt>
      <trkpt lat="44.93655" lon="1.10858">
        <ele>174.415</ele>
        <time>2015-08-04T10:08:55Z</time>
      </trkpt>
      <trkpt lat="44.93604" lon="1.10855">
        <ele>181.937</ele>
        <time>2015-08-04T10:09:15Z</time>
      </trkpt>
      <trkpt lat="44.9356" lon="1.10914">
        <ele>182.018</ele>
        <time>2015-08-04T10:09:35Z</time>
      </trkpt>
      <trkpt lat="44.93477" lon="1.10931">
        <ele>183.254</ele>
        <time>2015-08-04T10:09:55Z</time>
      </trkpt>
      <trkpt lat="44.93415" lon="1.10955">
        <ele>186.696</ele>
        <time>2015-08-04T10:10:15Z</time>
      </trkpt>
      <trkpt lat="44.93349" lon="1.11005">
        <ele>192.799</ele>
        <time>2015-08-04T10:10:35Z</time>
      </trkpt>
      <trkpt lat="44.93171" lon="1.11183">
        <ele>209.407</ele>
        <time>2015-08-04T10:10:55Z</time>
      </trkpt>
      <trkpt lat="44.93136" lon="1.11189">
        <ele>216.527</ele>
        <time>2015-08-04T10:11:15Z</time>
      </trkpt>
      <trkpt lat="44.9312" lon="1.11114">
        <ele>217.608</ele>
        <time>2015-08-04T10:11:35Z</time>
      </trkpt>
      <trkpt lat="44.93092" lon="1.11073">
        <ele>219.735</ele>
        <time>2015-08-04T10:11:55Z</time>
      </trkpt>
      <trkpt lat="44.93026" lon="1.11009">
        <ele>226.28</ele>
        <time>2015-08-04T10:12:15Z</time>
      </trkpt>
      <trkpt lat="44.9301" lon="1.10958">
        <ele>226.45</ele>
        <time>2015-08-04T10:12:35Z</time>
      </trkpt>
      <trkpt lat="44.92973" lon="1.10816">
        <ele>215.242</ele>
        <time>2015-08-04T10:12:55Z</time>
      </trkpt>
      <trkpt lat="44.92965" lon="1.10763">
        <ele>211.794</ele>
        <time>2015-08-04T10:13:15Z</time>
      </trkpt>
      <trkpt lat="44.92951" lon="1.10789">
        <ele>211.445</ele>
        <time>2015-08-04T10:13:35Z</time>
      </trkpt>
      <trkpt lat="44.92913" lon="1.10813">
        <ele>210.941</ele>
        <time>2015-08-04T10:13:55Z</time>
      </trkpt>
      <trkpt lat="44.92855" lon="1.10904">
        <ele>216.763</ele>
        <time>2015-08-04T10:14:15Z</time>
      </trkpt>
      <trkpt lat="44.92831" lon="1.10904">
        <ele>217.396</ele>
        <time>2015-08-04T10:14:35Z</time>
      </trkpt>
      <trkpt lat="44.92751" lon="1.10825">
        <ele>215.431</ele>
        <time>2015-08-04T10:14:55Z</time>
      </trkpt>
      <trkpt lat="44.92681" lon="1.10767">
        <ele>212.524</ele>
        <time>2015-08-04T10:15:15Z</time>
      </trkpt>
      <trkpt lat="44.92621" lon="1.10705">
        <ele>204.908</ele>
        <time>2015-08-04T10:15:35Z</time>
      </trkpt>
      <trkpt lat="44.92601" lon="1.1072">
        <ele>204.065</ele>
        <time>2015-08-04T10:15:55Z</time>
      </trkpt>
      <trkpt lat="44.92553" lon="1.10718">
        <ele>198.98</ele>
        <time>2015-08-04T10:16:15Z</time>
      </trkpt>
      <trkpt lat="44.92442" lon="1.10724">
        <ele>184.68</ele>
        <time>2015-08-04T10:16:35Z</time>
      </trkpt>
      <trkpt lat="44.92365" lon="1.10702">
        <ele>176.162</ele>
        <time>2015-08-04T10:16:55Z</time>
      </trkpt>
      <trkpt lat="44.92179" lon="1.10728">
        <ele>161.344</ele>
        <time>2015-08-04T10:17:15Z</time>
      </trkpt>
      <trkpt lat="44.92107" lon="1.10763">
        <ele>153.895</ele>
        <time>2015-08-04T10:17:35Z</time>
      </trkpt>
      <trkpt lat="44.92026" lon="1.10841">
        <ele>145.951</ele>
        <time>2015-08-04T10:17:55Z</time>
      </trkpt>
      <trkpt lat="44.91958" lon="1.10821">
        <ele>139.373</ele>
        <time>2015-08-04T10:18:15Z</time>
      </trkpt>
      <trkpt lat="44.91925" lon="1.10827">
        <ele>133.969</ele>
        <time>2015-08-04T10:18:35Z</time>
      </trkpt>
      <trkpt lat="44.91889" lon="1.10856">
        <ele>126.104</ele>
        <time>2015-08-04T10:18:55Z</time>
      </trkpt>
      <trkpt lat="44.91901" lon="1.10888">
        <ele>131.124</ele>
        <time>2015-08-04T10:19:15Z</time>
      </trkpt>
      <trkpt lat="44.91887" lon="1.111">
        <ele>135.008</ele>
        <time>2015-08-04T10:19:35Z</time>
      </trkpt>
      <trkpt lat="44.91888" lon="1.11154">
        <ele>135.872</ele>
        <time>2015-08-04T10:19:55Z</time>
      </trkpt>
      <trkpt lat="44.91927" lon="1.1131">
        <ele>136.477</ele>
        <time>2015-08-04T10:20:15Z</time>
      </trkpt>
      <trkpt lat="44.91926" lon="1.1136">
        <ele>132.027</ele>
        <time>2015-08-04T10:20:35Z</time>
      </trkpt>
      <trkpt lat="44.91908" lon="1.11503">
        <ele>136.949</ele>
        <time>2015-08-04T10:20:55Z</time>
      </trkpt>
      <trkpt lat="44.91877" lon="1.11662">
        <ele>134.661</ele>
        <time>2015-08-04T10:21:15Z</time>
      </trkpt>
      <trkpt lat="44.91895" lon="1.11731">
        <ele>136.552</ele>
        <time>2015-08-04T10:21:35Z</time>
      </trkpt>
      <trkpt lat="44.91857" lon="1.11795">
        <ele>132.788</ele>
        <time>2015-08-04T10:21:55Z</time>
      </trkpt>
      <trkpt lat="44.91877" lon="1.11823">
        <ele>134.82</ele>
        <time>2015-08-04T10:22:15Z</time>
      </trkpt>
      <trkpt lat="44.91864" lon="1.1187">
        <ele>145.438</ele>
        <time>2015-08-04T10:22:35Z</time>
      </trkpt>
      <trkpt lat="44.91949" lon="1.1192">
        <ele>143.37</ele>
        <time>2015-08-04T10:22:55Z</time>
      </trkpt>
      <trkpt lat="44.91989" lon="1.11979">
        <ele>137.717</ele>
        <time>2015-08-04T10:23:15Z</time>
      </trkpt>
      <trkpt lat="44.92001" lon="1.12043">
        <ele>139.708</ele>
        <time>2020-03-06T14:47:37Z</time>
      </trkpt>
      <trkpt lat="44.92049" lon="1.12114">
        <ele>146.829</ele>
        <time>2020-03-06T14:47:57Z</time>
      </trkpt>
      <trkpt lat="44.92051" lon="1.12144">
        <ele>149.874</ele>
        <time>2015-08-04T10:24:15Z</time>
      </trkpt>
      <trkpt lat="44.92017" lon="1.12176">
        <ele>159.654</ele>
        <time>2015-08-04T10:24:35Z</time>
      </trkpt>
      <trkpt lat="44.92003" lon="1.12267">
        <ele>168.466</ele>
        <time>2015-08-04T10:24:55Z</time>
      </trkpt>
      <trkpt lat="44.91968" lon="1.12312">
        <ele>173.268</ele>
        <time>2015-08-04T10:25:15Z</time>
      </trkpt>
      <trkpt lat="44.91948" lon="1.12376">
        <ele>180.389</ele>
        <time>2015-08-04T10:25:35Z</time>
      </trkpt>
      <trkpt lat="44.91971" lon="1.12392">
        <ele>176.265</ele>
        <time>2015-08-04T10:25:55Z</time>
      </trkpt>
      <trkpt lat="44.92052" lon="1.12377">
        <ele>180.787</ele>
        <time>2015-08-04T10:26:15Z</time>
      </trkpt>
      <trkpt lat="44.92079" lon="1.12426">
        <ele>189.233</ele>
        <time>2020-03-06T14:50:37Z</time>
      </trkpt>
      <trkpt lat="44.921" lon="1.12439">
        <ele>188.823</ele>
        <time>2020-03-06T14:50:57Z</time>
      </trkpt>
      <trkpt lat="44.92124" lon="1.12496">
        <ele>186.815</ele>
        <time>2015-08-04T10:26:55Z</time>
      </trkpt>
      <trkpt lat="44.92134" lon="1.1255">
        <ele>187.908</ele>
        <time>2015-08-04T10:27:15Z</time>
      </trkpt>
      <trkpt lat="44.92165" lon="1.12618">
        <ele>187.419</ele>
        <time>2015-08-04T10:27:35Z</time>
      </trkpt>
      <trkpt lat="44.92167" lon="1.12733">
        <ele>179.794</ele>
        <time>2015-08-04T10:27:55Z</time>
      </trkpt>
      <trkpt lat="44.9214" lon="1.12799">
        <ele>176.474</ele>
        <time>2015-08-04T10:28:15Z</time>
      </trkpt>
      <trkpt lat="44.92094" lon="1.12855">
        <ele>175.836</ele>
        <time>2015-08-04T10:28:35Z</time>
      </trkpt>
      <trkpt lat="44.9204" lon="1.13011">
        <ele>178.688</ele>
        <time>2015-08-04T10:28:55Z</time>
      </trkpt>
      <trkpt lat="44.92048" lon="1.13021">
        <ele>180.319</ele>
        <time>2015-08-04T10:29:15Z</time>
      </trkpt>
      <trkpt lat="44.92141" lon="1.1298">
        <ele>184.095</ele>
        <time>2015-08-04T10:29:35Z</time>
      </trkpt>
      <trkpt lat="44.92183" lon="1.13062">
        <ele>196.667</ele>
        <time>2015-08-04T10:29:55Z</time>
      </trkpt>
      <trkpt lat="44.92209" lon="1.13073">
        <ele>195.349</ele>
        <time>2015-08-04T10:30:15Z</time>
      </trkpt>
      <trkpt lat="44.92263" lon="1.13068">
        <ele>193.602</ele>
        <time>2015-08-04T10:30:35Z</time>
      </trkpt>
      <trkpt lat="44.92283" lon="1.13167">
        <ele>208.022</ele>
        <time>2015-08-04T10:30:55Z</time>
      </trkpt>
      <trkpt lat="44.92307" lon="1.13256">
        <ele>216.108</ele>
        <time>2015-08-04T10:31:15Z</time>
      </trkpt>
      <trkpt lat="44.92282" lon="1.13284">
        <ele>218.73</ele>
        <time>2015-08-04T10:31:35Z</time>
      </trkpt>
      <trkpt lat="44.92268" lon="1.13366">
        <ele>219.095</ele>
        <time>2015-08-04T10:31:55Z</time>
      </trkpt>
      <trkpt lat="44.92278" lon="1.13411">
        <ele>215.415</ele>
        <time>2015-08-04T10:32:15Z</time>
      </trkpt>
      <trkpt lat="44.92268" lon="1.13506">
        <ele>218.397</ele>
        <time>2015-08-04T10:32:35Z</time>
      </trkpt>
      <trkpt lat="44.92229" lon="1.13568">
        <ele>216.879</ele>
        <time>2015-08-04T10:32:55Z</time>
      </trkpt>
      <trkpt lat="44.92186" lon="1.13589">
        <ele>212.31</ele>
        <time>2015-08-04T10:33:15Z</time>
      </trkpt>
      <trkpt lat="44.92185" lon="1.13604">
        <ele>209.696</ele>
        <time>2015-08-04T10:33:35Z</time>
      </trkpt>
      <trkpt lat="44.92194" lon="1.1365">
        <ele>208.488</ele>
        <time>2015-08-04T10:33:55Z</time>
      </trkpt>
      <trkpt lat="44.92196" lon="1.13688">
        <ele>210.448</ele>
        <time>2015-08-04T10:34:15Z</time>
      </trkpt>
      <trkpt lat="44.92211" lon="1.13724">
        <ele>211.361</ele>
        <time>2015-08-04T10:34:35Z</time>
      </trkpt>
      <trkpt lat="44.92191" lon="1.13784">
        <ele>214.917</ele>
        <time>2015-08-04T10:34:55Z</time>
      </trkpt>
      <trkpt lat="44.92195" lon="1.13853">
        <ele>222.108</ele>
        <time>2015-08-04T10:35:15Z</time>
      </trkpt>
      <trkpt lat="44.92219" lon="1.13921">
        <ele>226.31</ele>
        <time>2015-08-04T10:35:35Z</time>
      </trkpt>
      <trkpt lat="44.92209" lon="1.13964">
        <ele>228.655</ele>
        <time>2015-08-04T10:35:55Z</time>
      </trkpt>
      <trkpt lat="44.9223" lon="1.14019">
        <ele>227.825</ele>
        <time>2020-03-06T15:00:37Z</time>
      </trkpt>
      <trkpt lat="44.92162" lon="1.14019">
        <ele>232.497</ele>
        <time>2015-08-04T10:36:35Z</time>
      </trkpt>
      <trkpt lat="44.92101" lon="1.14063">
        <ele>234.459</ele>
        <time>2015-08-04T10:36:55Z</time>
      </trkpt>
      <trkpt lat="44.92083" lon="1.14062">
        <ele>235.87</ele>
        <time>2015-08-04T10:37:15Z</time>
      </trkpt>
      <trkpt lat="44.92054" lon="1.14047">
        <ele>239.846</ele>
        <time>2015-08-04T10:37:35Z</time>
      </trkpt>
      <trkpt lat="44.92004" lon="1.1407">
        <ele>244.858</ele>
        <time>2015-08-04T10:37:55Z</time>
      </trkpt>
      <trkpt lat="44.91924" lon="1.14135">
        <ele>250.798</ele>
        <time>2015-08-04T10:38:15Z</time>
      </trkpt>
      <trkpt lat="44.91843" lon="1.14203">
        <ele>246.615</ele>
        <time>2015-08-04T10:38:35Z</time>
      </trkpt>
      <trkpt lat="44.91819" lon="1.1424">
        <ele>245.826</ele>
        <time>2015-08-04T10:38:55Z</time>
      </trkpt>
      <trkpt lat="44.91781" lon="1.14283">
        <ele>248.108</ele>
        <time>2015-08-04T10:39:15Z</time>
      </trkpt>
      <trkpt lat="44.91782" lon="1.14337">
        <ele>248.175</ele>
        <time>2015-08-04T10:39:35Z</time>
      </trkpt>
      <trkpt lat="44.91792" lon="1.14336">
        <ele>246.71</ele>
        <time>2015-08-04T10:39:55Z</time>
      </trkpt>
      <trkpt lat="44.91793" lon="1.14368">
        <ele>244.06</ele>
        <time>2015-08-04T10:40:15Z</time>
      </trkpt>
      <trkpt lat="44.91806" lon="1.1439">
        <ele>239.832</ele>
        <time>2015-08-04T10:40:35Z</time>
      </trkpt>
      <trkpt lat="44.91807" lon="1.1441">
        <ele>236.984</ele>
        <time>2015-08-04T10:40:55Z</time>
      </trkpt>
      <trkpt lat="44.91791" lon="1.1443">
        <ele>236.845</ele>
        <time>2015-08-04T10:41:15Z</time>
      </trkpt>
      <trkpt lat="44.9176" lon="1.14451">
        <ele>239.341</ele>
        <time>2015-08-04T10:41:35Z</time>
      </trkpt>
      <trkpt lat="44.91751" lon="1.14489">
        <ele>237.383</ele>
        <time>2015-08-04T10:41:55Z</time>
      </trkpt>
      <trkpt lat="44.9175" lon="1.14546">
        <ele>237.872</ele>
        <time>2015-08-04T10:42:15Z</time>
      </trkpt>
      <trkpt lat="44.91758" lon="1.14632">
        <ele>235.913</ele>
        <time>2015-08-04T10:42:35Z</time>
      </trkpt>
      <trkpt lat="44.91769" lon="1.14822">
        <ele>236.714</ele>
        <time>2015-08-04T10:42:55Z</time>
      </trkpt>
      <trkpt lat="44.91767" lon="1.14901">
        <ele>234.508</ele>
        <time>2015-08-04T10:43:15Z</time>
      </trkpt>
      <trkpt lat="44.91758" lon="1.14979">
        <ele>232.843</ele>
        <time>2015-08-04T10:43:35Z</time>
      </trkpt>
      <trkpt lat="44.91774" lon="1.15031">
        <ele>229.688</ele>
        <time>2015-08-04T10:43:55Z</time>
      </trkpt>
      <trkpt lat="44.91825" lon="1.15144">
        <ele>226.528</ele>
        <time>2015-08-04T10:44:15Z</time>
      </trkpt>
      <trkpt lat="44.9185" lon="1.15239">
        <ele>220.92</ele>
        <time>2015-08-04T10:44:35Z</time>
      </trkpt>
      <trkpt lat="44.91885" lon="1.15311">
        <ele>213.832</ele>
        <time>2015-08-04T10:44:55Z</time>
      </trkpt>
      <trkpt lat="44.91909" lon="1.15383">
        <ele>207.763</ele>
        <time>2015-08-04T10:45:15Z</time>
      </trkpt>
      <trkpt lat="44.92099" lon="1.15774">
        <ele>220.219</ele>
        <time>2015-08-04T10:45:35Z</time>
      </trkpt>
      <trkpt lat="44.9211" lon="1.15812">
        <ele>218.351</ele>
        <time>2015-08-04T10:45:55Z</time>
      </trkpt>
      <trkpt lat="44.9212" lon="1.15885">
        <ele>216.276</ele>
        <time>2015-08-04T10:46:15Z</time>
      </trkpt>
      <trkpt lat="44.9214" lon="1.15956">
        <ele>215.79</ele>
        <time>2015-08-04T10:46:35Z</time>
      </trkpt>
      <trkpt lat="44.92212" lon="1.1602">
        <ele>217.819</ele>
        <time>2015-08-04T10:46:55Z</time>
      </trkpt>
      <trkpt lat="44.92212" lon="1.16071">
        <ele>218.808</ele>
        <time>2020-03-06T15:11:37Z</time>
      </trkpt>
      <trkpt lat="44.92237" lon="1.16083">
        <ele>222.573</ele>
        <time>2020-03-06T15:11:57Z</time>
      </trkpt>
      <trkpt lat="44.92255" lon="1.16249">
        <ele>225.128</ele>
        <time>2015-08-04T10:47:35Z</time>
      </trkpt>
      <trkpt lat="44.92282" lon="1.16342">
        <ele>225.458</ele>
        <time>2015-08-04T10:47:55Z</time>
      </trkpt>
      <trkpt lat="44.92344" lon="1.16539">
        <ele>233.37</ele>
        <time>2015-08-04T10:48:15Z</time>
      </trkpt>
      <trkpt lat="44.92373" lon="1.16601">
        <ele>236.442</ele>
        <time>2015-08-04T10:48:35Z</time>
      </trkpt>
      <trkpt lat="44.92375" lon="1.16642">
        <ele>235.443</ele>
        <time>2015-08-04T10:48:55Z</time>
      </trkpt>
      <trkpt lat="44.92386" lon="1.16646">
        <ele>238.119</ele>
        <time>2015-08-04T10:49:15Z</time>
      </trkpt>
      <trkpt lat="44.92395" lon="1.16622">
        <ele>240.541</ele>
        <time>2015-08-04T10:49:35Z</time>
      </trkpt>
      <trkpt lat="44.92435" lon="1.16629">
        <ele>243.366</ele>
        <time>2015-08-04T10:49:55Z</time>
      </trkpt>
      <trkpt lat="44.92458" lon="1.16614">
        <ele>241.629</ele>
        <time>2015-08-04T10:50:15Z</time>
      </trkpt>
      <trkpt lat="44.92485" lon="1.1666">
        <ele>243.221</ele>
        <time>2015-08-04T10:50:35Z</time>
      </trkpt>
      <trkpt lat="44.92508" lon="1.16743">
        <ele>247.808</ele>
        <time>2015-08-04T10:50:55Z</time>
      </trkpt>
      <trkpt lat="44.92603" lon="1.1687">
        <ele>239.212</ele>
        <time>2015-08-04T10:51:15Z</time>
      </trkpt>
      <trkpt lat="44.92607" lon="1.16995">
        <ele>239.837</ele>
        <time>2015-08-04T10:51:35Z</time>
      </trkpt>
      <trkpt lat="44.92629" lon="1.17042">
        <ele>241.327</ele>
        <time>2015-08-04T10:51:55Z</time>
      </trkpt>
      <trkpt lat="44.92651" lon="1.17106">
        <ele>242.719</ele>
        <time>2015-08-04T10:52:15Z</time>
      </trkpt>
      <trkpt lat="44.92702" lon="1.17197">
        <ele>244.261</ele>
        <time>2015-08-04T10:52:35Z</time>
      </trkpt>
      <trkpt lat="44.92724" lon="1.17251">
        <ele>239.882</ele>
        <time>2015-08-04T10:52:55Z</time>
      </trkpt>
      <trkpt lat="44.92707" lon="1.17317">
        <ele>239.778</ele>
        <time>2015-08-04T10:53:15Z</time>
      </trkpt>
      <trkpt lat="44.92721" lon="1.17386">
        <ele>240.15</ele>
        <time>2015-08-04T10:53:35Z</time>
      </trkpt>
      <trkpt lat="44.92722" lon="1.17435">
        <ele>243.779</ele>
        <time>2015-08-04T10:53:55Z</time>
      </trkpt>
      <trkpt lat="44.92767" lon="1.17473">
        <ele>245.505</ele>
        <time>2015-08-04T10:54:15Z</time>
      </trkpt>
      <trkpt lat="44.92868" lon="1.17497">
        <ele>253.225</ele>
        <time>2015-08-04T10:54:35Z</time>
      </trkpt>
      <trkpt lat="44.92781" lon="1.17581">
        <ele>257.108</ele>
        <time>2015-08-04T10:54:55Z</time>
      </trkpt>
      <trkpt lat="44.92728" lon="1.17606">
        <ele>257.763</ele>
        <time>2015-08-04T10:55:15Z</time>
      </trkpt>
      <trkpt lat="44.92689" lon="1.17638">
        <ele>259.758</ele>
        <time>2015-08-04T10:55:35Z</time>
      </trkpt>
      <trkpt lat="44.92654" lon="1.17632">
        <ele>259.298</ele>
        <time>2015-08-04T10:55:55Z</time>
      </trkpt>
      <trkpt lat="44.92613" lon="1.17638">
        <ele>263.73</ele>
        <time>2015-08-04T10:56:15Z</time>
      </trkpt>
      <trkpt lat="44.92445" lon="1.17637">
        <ele>276.922</ele>
        <time>2015-08-04T10:56:35Z</time>
      </trkpt>
      <trkpt lat="44.92431" lon="1.1772">
        <ele>279.943</ele>
        <time>2015-08-04T10:56:55Z</time>
      </trkpt>
      <trkpt lat="44.92439" lon="1.17782">
        <ele>284.219</ele>
        <time>2015-08-04T10:57:15Z</time>
      </trkpt>
      <trkpt lat="44.92435" lon="1.17875">
        <ele>301.341</ele>
        <time>2015-08-04T10:57:35Z</time>
      </trkpt>
      <trkpt lat="44.92437" lon="1.17963">
        <ele>309.193</ele>
        <time>2015-08-04T10:57:55Z</time>
      </trkpt>
      <trkpt lat="44.92451" lon="1.18061">
        <ele>312.465</ele>
        <time>2015-08-04T10:58:15Z</time>
      </trkpt>
      <trkpt lat="44.92463" lon="1.1809">
        <ele>312.121</ele>
        <time>2015-08-04T10:58:35Z</time>
      </trkpt>
      <trkpt lat="44.92499" lon="1.18124">
        <ele>311.008</ele>
        <time>2015-08-04T10:58:55Z</time>
      </trkpt>
      <trkpt lat="44.92523" lon="1.18142">
        <ele>309.035</ele>
        <time>2015-08-04T10:59:15Z</time>
      </trkpt>
      <trkpt lat="44.92515" lon="1.1822">
        <ele>305.58</ele>
        <time>2015-08-04T10:59:35Z</time>
      </trkpt>
      <trkpt lat="44.92497" lon="1.18358">
        <ele>303.83</ele>
        <time>2015-08-04T10:59:55Z</time>
      </trkpt>
      <trkpt lat="44.92469" lon="1.18496">
        <ele>306.142</ele>
        <time>2015-08-04T11:00:15Z</time>
      </trkpt>
      <trkpt lat="44.92465" lon="1.18546">
        <ele>308.134</ele>
        <time>2015-08-04T11:00:35Z</time>
      </trkpt>
      <trkpt lat="44.92455" lon="1.18586">
        <ele>308.985</ele>
        <time>2015-08-04T11:00:55Z</time>
      </trkpt>
      <trkpt lat="44.9245" lon="1.18625">
        <ele>308.251</ele>
        <time>2015-08-04T11:01:15Z</time>
      </trkpt>
      <trkpt lat="44.92452" lon="1.18665">
        <ele>304.623</ele>
        <time>2015-08-04T11:01:35Z</time>
      </trkpt>
      <trkpt lat="44.92447" lon="1.18695">
        <ele>304.273</ele>
        <time>2015-08-04T11:01:55Z</time>
      </trkpt>
      <trkpt lat="44.92445" lon="1.18737">
        <ele>302.785</ele>
        <time>2015-08-04T11:02:15Z</time>
      </trkpt>
      <trkpt lat="44.92413" lon="1.18842">
        <ele>293.313</ele>
        <time>2020-03-06T15:27:17Z</time>
      </trkpt>
      <trkpt lat="44.92382" lon="1.18914">
        <ele>291.808</ele>
        <time>2015-08-04T11:03:15Z</time>
      </trkpt>
      <trkpt lat="44.92392" lon="1.18947">
        <ele>295.753</ele>
        <time>2015-08-04T11:03:35Z</time>
      </trkpt>
      <trkpt lat="44.92378" lon="1.18986">
        <ele>294.678</ele>
        <time>2015-08-04T11:03:55Z</time>
      </trkpt>
      <trkpt lat="44.92406" lon="1.19407">
        <ele>314.458</ele>
        <time>2020-03-06T15:28:37Z</time>
      </trkpt>
      <trkpt lat="44.92432" lon="1.19502">
        <ele>314.14</ele>
        <time>2015-08-04T11:04:35Z</time>
      </trkpt>
      <trkpt lat="44.92467" lon="1.19566">
        <ele>319.732</ele>
        <time>2015-08-04T11:04:55Z</time>
      </trkpt>
      <trkpt lat="44.9243" lon="1.19926">
        <ele>315.013</ele>
        <time>2015-08-04T11:05:15Z</time>
      </trkpt>
      <trkpt lat="44.92379" lon="1.19996">
        <ele>304.119</ele>
        <time>2015-08-04T11:05:35Z</time>
      </trkpt>
      <trkpt lat="44.92407" lon="1.20045">
        <ele>309.571</ele>
        <time>2015-08-04T11:05:55Z</time>
      </trkpt>
      <trkpt lat="44.92449" lon="1.20085">
        <ele>312.231</ele>
        <time>2015-08-04T11:06:15Z</time>
      </trkpt>
      <trkpt lat="44.92506" lon="1.20171">
        <ele>305.861</ele>
        <time>2015-08-04T11:06:35Z</time>
      </trkpt>
      <trkpt lat="44.92402" lon="1.2042">
        <ele>280.007</ele>
        <time>2015-08-04T11:06:55Z</time>
      </trkpt>
      <trkpt lat="44.92346" lon="1.20467">
        <ele>266.108</ele>
        <time>2015-08-04T11:07:15Z</time>
      </trkpt>
      <trkpt lat="44.92324" lon="1.20514">
        <ele>259.279</ele>
        <time>2015-08-04T11:07:35Z</time>
      </trkpt>
      <trkpt lat="44.92277" lon="1.20642">
        <ele>247.924</ele>
        <time>2015-08-04T11:07:55Z</time>
      </trkpt>
      <trkpt lat="44.92181" lon="1.20682">
        <ele>244.544</ele>
        <time>2015-08-04T11:08:15Z</time>
      </trkpt>
      <trkpt lat="44.9214" lon="1.20717">
        <ele>247.156</ele>
        <time>2015-08-04T11:08:35Z</time>
      </trkpt>
      <trkpt lat="44.92025" lon="1.20721">
        <ele>245.268</ele>
        <time>2015-08-04T11:08:55Z</time>
      </trkpt>
      <trkpt lat="44.91985" lon="1.20746">
        <ele>247.679</ele>
        <time>2015-08-04T11:09:15Z</time>
      </trkpt>
      <trkpt lat="44.91827" lon="1.20913">
        <ele>250.135</ele>
        <time>2015-08-04T11:09:35Z</time>
      </trkpt>
      <trkpt lat="44.91789" lon="1.20935">
        <ele>251.177</ele>
        <time>2015-08-04T11:09:55Z</time>
      </trkpt>
      <trkpt lat="44.9168" lon="1.20943">
        <ele>255.234</ele>
        <time>2015-08-04T11:10:15Z</time>
      </trkpt>
      <trkpt lat="44.91638" lon="1.20976">
        <ele>259.555</ele>
        <time>2015-08-04T11:10:35Z</time>
      </trkpt>
      <trkpt lat="44.91496" lon="1.2115">
        <ele>256.81</ele>
        <time>2015-08-04T11:10:55Z</time>
      </trkpt>
      <trkpt lat="44.91422" lon="1.21181">
        <ele>256.908</ele>
        <time>2015-08-04T11:11:15Z</time>
      </trkpt>
      <trkpt lat="44.91355" lon="1.21192">
        <ele>262.649</ele>
        <time>2015-08-04T11:11:35Z</time>
      </trkpt>
      <trkpt lat="44.91222" lon="1.21248">
        <ele>273.774</ele>
        <time>2015-08-04T11:11:55Z</time>
      </trkpt>
      <trkpt lat="44.91132" lon="1.21309">
        <ele>283.424</ele>
        <time>2015-08-04T11:12:15Z</time>
      </trkpt>
      <trkpt lat="44.91151" lon="1.21421">
        <ele>281.536</ele>
        <time>2015-08-04T11:12:35Z</time>
      </trkpt>
      <trkpt lat="44.91087" lon="1.21449">
        <ele>279.938</ele>
        <time>2015-08-04T11:12:55Z</time>
      </trkpt>
      <trkpt lat="44.91062" lon="1.21413">
        <ele>282.979</ele>
        <time>2015-08-04T11:13:15Z</time>
      </trkpt>
      <trkpt lat="44.91025" lon="1.21451">
        <ele>276.725</ele>
        <time>2015-08-04T11:13:35Z</time>
      </trkpt>
      <trkpt lat="44.9098" lon="1.21511">
        <ele>266.767</ele>
        <time>2015-08-04T11:13:55Z</time>
      </trkpt>
      <trkpt lat="44.90952" lon="1.2151">
        <ele>261.511</ele>
        <time>2015-08-04T11:14:15Z</time>
      </trkpt>
      <trkpt lat="44.90912" lon="1.21531">
        <ele>256.621</ele>
        <time>2015-08-04T11:14:35Z</time>
      </trkpt>
      <trkpt lat="44.90864" lon="1.2152">
        <ele>245.603</ele>
        <time>2015-08-04T11:14:55Z</time>
      </trkpt>
      <trkpt lat="44.90834" lon="1.21531">
        <ele>240.008</ele>
        <time>2015-08-04T11:15:15Z</time>
      </trkpt>
      <trkpt lat="44.90796" lon="1.21574">
        <ele>237.557</ele>
        <time>2015-08-04T11:15:35Z</time>
      </trkpt>
      <trkpt lat="44.90772" lon="1.21574">
        <ele>233.862</ele>
        <time>2015-08-04T11:15:55Z</time>
      </trkpt>
      <trkpt lat="44.90681" lon="1.21512">
        <ele>209.672</ele>
        <time>2015-08-04T11:16:15Z</time>
      </trkpt>
      <trkpt lat="44.90601" lon="1.21467">
        <ele>201.264</ele>
        <time>2015-08-04T11:16:35Z</time>
      </trkpt>
      <trkpt lat="44.90521" lon="1.2147">
        <ele>193.086</ele>
        <time>2015-08-04T11:16:55Z</time>
      </trkpt>
      <trkpt lat="44.90464" lon="1.21505">
        <ele>190.587</ele>
        <time>2015-08-04T11:17:15Z</time>
      </trkpt>
      <trkpt lat="44.90341" lon="1.21466">
        <ele>181.153</ele>
        <time>2015-08-04T11:17:35Z</time>
      </trkpt>
      <trkpt lat="44.90281" lon="1.21414">
        <ele>172.315</ele>
        <time>2015-08-04T11:17:55Z</time>
      </trkpt>
      <trkpt lat="44.90223" lon="1.21423">
        <ele>166.138</ele>
        <time>2015-08-04T11:18:15Z</time>
      </trkpt>
      <trkpt lat="44.90163" lon="1.21437">
        <ele>163.47</ele>
        <time>2015-08-04T11:18:35Z</time>
      </trkpt>
      <trkpt lat="44.9012" lon="1.21418">
        <ele>162.817</ele>
        <time>2015-08-04T11:18:55Z</time>
      </trkpt>
      <trkpt lat="44.90054" lon="1.21431">
        <ele>163.008</ele>
        <time>2015-08-04T11:19:15Z</time>
      </trkpt>
      <trkpt lat="44.90015" lon="1.21415">
        <ele>160.989</ele>
        <time>2015-08-04T11:19:35Z</time>
      </trkpt>
      <trkpt lat="44.89961" lon="1.21426">
        <ele>161.114</ele>
        <time>2015-08-04T11:19:55Z</time>
      </trkpt>
      <trkpt lat="44.89914" lon="1.21457">
        <ele>163.954</ele>
        <time>2015-08-04T11:20:15Z</time>
      </trkpt>
      <trkpt lat="44.89827" lon="1.21406">
        <ele>157.316</ele>
        <time>2015-08-04T11:20:35Z</time>
      </trkpt>
      <trkpt lat="44.89793" lon="1.21429">
        <ele>155.318</ele>
        <time>2015-08-04T11:20:55Z</time>
      </trkpt>
      <trkpt lat="44.89758" lon="1.21475">
        <ele>153.659</ele>
        <time>2015-08-04T11:21:15Z</time>
      </trkpt>
      <trkpt lat="44.89728" lon="1.2145">
        <ele>153.585</ele>
        <time>2015-08-04T11:21:35Z</time>
      </trkpt>
      <trkpt lat="44.89585" lon="1.21494">
        <ele>150.217</ele>
        <time>2015-08-04T11:21:55Z</time>
      </trkpt>
      <trkpt lat="44.89599" lon="1.21562">
        <ele>151.041</ele>
        <time>2015-08-04T11:22:15Z</time>
      </trkpt>
      <trkpt lat="44.89532" lon="1.21647">
        <ele>150.281</ele>
        <time>2015-08-04T11:22:35Z</time>
      </trkpt>
      <trkpt lat="44.8951" lon="1.21641">
        <ele>149.109</ele>
        <time>2015-08-04T11:22:55Z</time>
      </trkpt>
      <trkpt lat="44.89454" lon="1.21691">
        <ele>149.308</ele>
        <time>2015-08-04T11:23:15Z</time>
      </trkpt>
      <trkpt lat="44.89282" lon="1.21674">
        <ele>150.24</ele>
        <time>2015-08-04T11:23:35Z</time>
      </trkpt>
      <trkpt lat="44.89282" lon="1.21674">
        <ele>150.24</ele>
        <time>2015-08-04T11:23:35Z</time>
      </trkpt>
      <trkpt lat="44.89208" lon="1.21626">
        <ele>151.695</ele>
        <time>2015-08-04T11:23:55Z</time>
      </trkpt>
      <trkpt lat="44.89125" lon="1.2161">
        <ele>152.065</ele>
        <time>2015-08-04T11:24:15Z</time>
      </trkpt>
      <trkpt lat="44.89072" lon="1.21689">
        <ele>153.2</ele>
      </trkpt>
      <trkpt lat="44.89059" lon="1.2187">
        <ele>154.5</ele>
      </trkpt>
      <trkpt lat="44.89142" lon="1.21989">
        <ele>162.9</ele>
      </trkpt>
      <trkpt lat="44.89219" lon="1.22249">
        <ele>173.4</ele>
      </trkpt>
      <trkpt lat="44.89283" lon="1.22378">
        <ele>179.8</ele>
      </trkpt>
      <trkpt lat="44.89332" lon="1.22436">
        <ele>181.7</ele>
      </trkpt>
      <trkpt lat="44.89377" lon="1.22628">
        <ele>197.8</ele>
      </trkpt>
      <trkpt lat="44.89361" lon="1.22787">
        <ele>209</ele>
      </trkpt>
    </trkseg>
  </trk>
</gpx>